createdAt,value
2022-10-03T00:02:01.838Z,11.06
2022-10-03T00:06:03.321Z,10.98
2022-10-03T00:10:05.972Z,10.93
2022-10-03T00:13:56.255Z,10.89
2022-10-03T00:17:43.102Z,10.82
2022-10-03T00:21:38.113Z,10.77
2022-10-03T00:25:31.262Z,10.72
2022-10-03T00:29:27.234Z,10.72
2022-10-03T00:33:17.509Z,10.68
2022-10-03T00:37:11.037Z,10.68
2022-10-03T00:41:24.282Z,10.64
2022-10-03T00:45:29.933Z,10.63
2022-10-03T00:49:34.844Z,10.55
2022-10-03T00:53:32.934Z,10.45
2022-10-03T00:57:28.616Z,10.40
2022-10-03T01:01:35.719Z,10.35
2022-10-03T01:05:27.692Z,10.32
2022-10-03T01:09:33.619Z,10.23
2022-10-03T01:13:30.082Z,10.18
2022-10-03T01:17:20.475Z,10.15
2022-10-03T01:21:09.788Z,10.23
2022-10-03T01:24:55.471Z,10.21
2022-10-03T01:29:05.472Z,10.30
2022-10-03T01:32:54.335Z,10.25
2022-10-03T01:36:42.550Z,10.18
2022-10-03T01:40:30.658Z,10.10
2022-10-03T01:44:20.757Z,10.06
2022-10-03T01:48:07.553Z,10.02
2022-10-03T01:51:56.309Z,10.03
2022-10-03T01:55:49.906Z,9.97
2022-10-03T01:59:42.191Z,9.93
2022-10-03T02:03:28.911Z,9.88
2022-10-03T02:07:22.463Z,9.82
2022-10-03T02:11:08.292Z,9.72
2022-10-03T02:14:55.083Z,9.61
2022-10-03T02:18:46.286Z,9.60
2022-10-03T02:22:36.096Z,9.52
2022-10-03T02:26:45.121Z,9.58
2022-10-03T02:30:33.383Z,9.58
2022-10-03T02:34:32.306Z,9.59
2022-10-03T02:38:37.215Z,9.63
2022-10-03T02:43:07.389Z,9.56
2022-10-03T02:47:20.337Z,9.55
2022-10-03T02:51:38.953Z,9.52
2022-10-03T02:55:48.466Z,9.48
2022-10-03T02:59:53.529Z,9.44
2022-10-03T03:04:10.359Z,9.44
2022-10-03T03:08:10.255Z,9.40
2022-10-03T03:12:23.533Z,9.38
2022-10-03T03:16:20.772Z,9.37
2022-10-03T03:20:31.795Z,9.34
2022-10-03T03:24:39.294Z,9.34
2022-10-03T03:28:32.338Z,9.35
2022-10-03T03:32:23.206Z,9.31
2022-10-03T03:36:15.122Z,9.30
2022-10-03T03:40:08.531Z,9.25
2022-10-03T03:44:10.719Z,9.24
2022-10-03T03:48:05.820Z,9.18
2022-10-03T03:51:58.753Z,9.16
2022-10-03T03:55:56.333Z,9.17
2022-10-03T03:59:58.390Z,9.09
2022-10-03T04:03:48.427Z,9.02
2022-10-03T04:07:49.288Z,9.01
2022-10-03T04:11:40.422Z,9.05
2022-10-03T04:15:34.972Z,9.01
2022-10-03T04:19:26.106Z,8.98
2022-10-03T04:23:25.378Z,8.87
2022-10-03T04:27:38.086Z,8.82
2022-10-03T04:31:30.428Z,8.77
2022-10-03T04:35:39.551Z,8.71
2022-10-03T04:39:30.590Z,8.66
2022-10-03T04:43:16.995Z,8.59
2022-10-03T04:47:02.738Z,8.59
2022-10-03T04:50:52.856Z,8.59
2022-10-03T04:54:48.240Z,8.56
2022-10-03T04:58:35.776Z,8.56
2022-10-03T05:02:25.608Z,8.52
2022-10-03T05:06:21.414Z,8.50
2022-10-03T05:10:32.289Z,8.46
2022-10-03T05:14:22.427Z,8.46
2022-10-03T05:18:14.184Z,8.48
2022-10-03T05:22:00.283Z,8.47
2022-10-03T05:25:53.462Z,8.40
2022-10-03T05:29:38.548Z,8.38
2022-10-03T05:33:31.531Z,8.37
2022-10-03T05:37:37.150Z,8.39
2022-10-03T05:41:26.305Z,8.40
2022-10-03T05:45:24.387Z,8.37
2022-10-03T05:49:21.139Z,8.38
2022-10-03T05:53:17.369Z,8.43
2022-10-03T05:57:28.905Z,8.44
2022-10-03T06:01:52.396Z,8.51
2022-10-03T06:05:47.612Z,8.57
2022-10-03T06:09:46.934Z,8.60
2022-10-03T06:13:41.622Z,8.59
2022-10-03T06:17:51.060Z,8.57
2022-10-03T06:21:55.026Z,8.56
2022-10-03T06:26:08.248Z,8.61
2022-10-03T06:30:12.725Z,8.68
2022-10-03T06:34:08.262Z,8.76
2022-10-03T06:38:08.418Z,8.84
2022-10-03T06:42:22.982Z,8.97
2022-10-03T06:46:38.116Z,9.09
2022-10-03T06:50:35.693Z,9.20
2022-10-03T06:55:04.332Z,9.30
2022-10-03T06:59:09.231Z,9.37
2022-10-03T07:03:18.917Z,9.42
2022-10-03T07:07:15.891Z,9.52
2022-10-03T07:11:14.378Z,9.65
2022-10-03T07:15:14.901Z,9.78
2022-10-03T07:19:42.621Z,9.87
2022-10-03T07:23:42.569Z,9.91
2022-10-03T07:27:40.255Z,10.02
2022-10-03T07:31:31.436Z,10.13
2022-10-03T07:35:27.146Z,10.26
2022-10-03T07:39:26.657Z,10.34
2022-10-03T07:43:32.097Z,10.39
2022-10-03T07:48:02.963Z,10.50
2022-10-03T07:52:00.781Z,10.52
2022-10-03T07:55:53.699Z,10.59
2022-10-03T08:00:07.277Z,10.64
2022-10-03T08:04:29.485Z,10.69
2022-10-03T08:08:33.583Z,10.75
2022-10-03T08:12:29.692Z,10.77
2022-10-03T08:16:24.943Z,10.78
2022-10-03T08:20:22.862Z,10.80
2022-10-03T08:24:18.018Z,10.84
2022-10-03T08:28:31.499Z,10.84
2022-10-03T08:32:48.840Z,10.76
2022-10-03T08:37:08.013Z,10.88
2022-10-03T08:41:31.916Z,10.70
2022-10-03T08:45:56.462Z,10.59
2022-10-03T08:50:07.590Z,10.65
2022-10-03T08:54:01.479Z,10.72
2022-10-03T08:58:22.938Z,10.75
2022-10-03T09:02:41.869Z,10.77
2022-10-03T09:07:17.042Z,10.86
2022-10-03T09:11:37.471Z,10.98
2022-10-03T09:15:50.315Z,10.93
2022-10-03T09:20:08.164Z,11.00
2022-10-03T09:24:00.990Z,10.93
2022-10-03T09:28:08.820Z,10.93
2022-10-03T09:32:32.922Z,10.99
2022-10-03T09:37:00.568Z,11.18
2022-10-03T09:41:21.858Z,11.45
2022-10-03T09:45:43.351Z,11.71
2022-10-03T09:49:45.484Z,11.84
2022-10-03T09:53:54.916Z,11.93
2022-10-03T09:57:58.307Z,11.89
2022-10-03T10:01:45.887Z,11.85
2022-10-03T10:06:07.370Z,11.73
2022-10-03T10:10:21.905Z,11.80
2022-10-03T10:14:26.417Z,11.93
2022-10-03T10:18:29.131Z,12.11
2022-10-03T10:22:59.224Z,12.26
2022-10-03T10:27:18.442Z,12.39
2022-10-03T10:31:32.080Z,12.49
2022-10-03T10:35:45.314Z,12.60
2022-10-03T10:40:00.647Z,12.85
2022-10-03T10:44:28.396Z,12.71
2022-10-03T10:49:02.849Z,12.50
2022-10-03T10:53:40.123Z,12.47
2022-10-03T10:57:27.149Z,12.44
2022-10-03T11:01:58.017Z,12.75
2022-10-03T11:06:41.788Z,12.99
2022-10-03T11:10:35.802Z,12.88
2022-10-03T11:14:56.107Z,12.90
2022-10-03T11:19:16.549Z,12.87
2022-10-03T11:27:36.976Z,13.11
2022-10-03T11:31:41.958Z,13.12
2022-10-03T11:35:59.673Z,13.09
2022-10-03T11:39:48.175Z,13.24
2022-10-03T11:43:49.605Z,13.51
2022-10-03T11:47:41.950Z,13.53
2022-10-03T11:51:37.543Z,13.81
2022-10-03T11:55:26.881Z,14.02
2022-10-03T11:59:31.181Z,14.23
2022-10-03T12:03:19.851Z,14.42
2022-10-03T12:07:24.981Z,14.42
2022-10-03T12:11:14.088Z,14.26
2022-10-03T12:15:03.250Z,14.18
2022-10-03T12:19:01.890Z,14.38
2022-10-03T12:22:51.827Z,14.48
2022-10-03T12:26:44.936Z,14.47
2022-10-03T12:30:30.418Z,14.66
2022-10-03T12:34:32.442Z,14.87
2022-10-03T12:38:34.232Z,15.17
2022-10-03T12:42:27.086Z,15.60
2022-10-03T12:46:15.221Z,15.87
2022-10-03T12:50:04.072Z,16.28
2022-10-03T12:53:56.265Z,16.42
2022-10-03T12:57:59.179Z,16.39
2022-10-03T13:01:58.338Z,16.27
2022-10-03T13:06:18.348Z,16.16
2022-10-03T13:10:06.016Z,16.09
2022-10-03T13:14:00.736Z,16.31
2022-10-03T13:17:49.584Z,16.54
2022-10-03T13:21:51.359Z,16.91
2022-10-03T13:25:39.393Z,17.24
2022-10-03T13:29:36.478Z,17.61
2022-10-03T13:33:21.166Z,17.61
2022-10-03T13:37:09.906Z,17.43
2022-10-03T13:40:57.879Z,17.33
2022-10-03T13:44:43.419Z,17.04
2022-10-03T13:48:28.107Z,16.63
2022-10-03T13:52:18.341Z,16.50
2022-10-03T13:56:05.149Z,16.59
2022-10-03T13:59:57.152Z,16.77
2022-10-03T14:03:48.847Z,16.95
2022-10-03T14:07:42.681Z,17.03
2022-10-03T14:11:27.796Z,17.12
2022-10-03T14:15:19.131Z,17.33
2022-10-03T14:19:08.947Z,17.43
2022-10-03T14:23:10.635Z,17.69
2022-10-03T14:26:58.338Z,18.09
2022-10-03T14:31:05.418Z,17.84
2022-10-03T14:34:55.836Z,17.35
2022-10-03T14:39:00.546Z,17.10
2022-10-03T14:42:54.834Z,17.39
2022-10-03T14:46:43.733Z,17.64
2022-10-03T14:50:27.915Z,17.46
2022-10-03T14:54:19.367Z,17.34
2022-10-03T14:58:13.170Z,17.49
2022-10-03T15:01:57.483Z,17.63
2022-10-03T15:05:55.378Z,17.93
2022-10-03T15:09:49.117Z,18.18
2022-10-03T15:13:35.088Z,18.13
2022-10-03T15:17:20.240Z,18.02
2022-10-03T15:21:03.838Z,17.99
2022-10-03T15:24:48.479Z,17.92
2022-10-03T15:28:37.741Z,18.00
2022-10-03T15:32:24.159Z,18.10
2022-10-03T15:36:11.964Z,18.05
2022-10-03T15:40:01.675Z,17.93
2022-10-03T15:43:49.412Z,17.59
2022-10-03T15:47:33.834Z,17.29
2022-10-03T15:51:19.445Z,17.19
2022-10-03T15:55:12.596Z,17.25
2022-10-03T15:58:57.390Z,17.16
2022-10-03T16:02:43.252Z,16.91
2022-10-03T16:06:32.272Z,16.81
2022-10-03T16:10:21.930Z,16.65
2022-10-03T16:14:18.434Z,16.43
2022-10-03T16:18:03.172Z,16.18
2022-10-03T16:21:49.287Z,15.96
2022-10-03T16:25:43.263Z,15.81
2022-10-03T16:29:29.019Z,15.67
2022-10-03T16:33:16.913Z,15.57
2022-10-03T16:37:00.383Z,15.43
2022-10-03T16:40:55.249Z,15.17
2022-10-03T16:44:43.546Z,14.99
2022-10-03T16:48:49.784Z,14.74
2022-10-03T16:52:34.525Z,14.50
2022-10-03T16:56:20.508Z,14.38
2022-10-03T17:00:07.896Z,14.22
2022-10-03T17:03:56.002Z,14.07
2022-10-03T17:07:41.237Z,13.86
2022-10-03T17:11:27.489Z,13.72
2022-10-03T17:15:17.577Z,13.44
2022-10-03T17:19:17.209Z,13.00
2022-10-03T17:23:02.526Z,12.62
2022-10-03T17:26:48.325Z,12.53
2022-10-03T17:30:35.208Z,12.65
2022-10-03T17:34:20.422Z,12.76
2022-10-03T17:38:44.613Z,12.82
2022-10-03T17:42:31.340Z,12.82
2022-10-03T17:46:19.321Z,12.75
2022-10-03T17:50:06.274Z,12.68
2022-10-03T17:53:57.204Z,12.56
2022-10-03T17:57:45.795Z,12.46
2022-10-03T18:01:32.264Z,12.39
2022-10-03T18:05:18.338Z,12.32
2022-10-03T18:09:03.019Z,12.23
2022-10-03T18:12:48.757Z,12.16
2022-10-03T18:16:35.128Z,12.09
2022-10-03T18:20:29.815Z,12.02
2022-10-03T18:24:19.859Z,11.72
2022-10-03T18:28:12.813Z,11.47
2022-10-03T18:31:58.852Z,11.38
2022-10-03T18:35:44.045Z,11.41
2022-10-03T18:39:28.414Z,11.37
2022-10-03T18:43:25.782Z,11.32
2022-10-03T18:47:17.245Z,11.33
2022-10-03T18:51:05.503Z,11.28
2022-10-03T18:54:55.534Z,11.17
2022-10-03T18:58:42.346Z,11.08
2022-10-03T19:02:28.156Z,11.00
2022-10-03T19:06:19.540Z,11.00
2022-10-03T19:10:31.655Z,11.00
2022-10-03T19:14:18.667Z,11.03
2022-10-03T19:18:10.327Z,10.90
2022-10-03T19:21:53.677Z,10.81
2022-10-03T19:25:38.326Z,10.73
2022-10-03T19:29:24.204Z,10.62
2022-10-03T19:33:08.326Z,10.54
2022-10-03T19:36:51.629Z,10.46
2022-10-03T19:40:42.367Z,10.36
2022-10-03T19:44:27.846Z,10.31
2022-10-03T19:48:12.600Z,10.26
2022-10-03T19:52:11.462Z,10.12
2022-10-03T19:55:54.633Z,10.10
2022-10-03T19:59:45.256Z,10.12
2022-10-03T20:03:35.080Z,10.07
2022-10-03T20:07:18.754Z,10.03
2022-10-03T20:11:14.315Z,10.06
2022-10-03T20:15:03.273Z,10.06
2022-10-03T20:18:47.001Z,10.02
2022-10-03T20:22:31.161Z,9.96
2022-10-03T20:26:19.447Z,9.84
2022-10-03T20:30:20.836Z,9.72
2022-10-03T20:34:06.467Z,9.66
2022-10-03T20:37:52.833Z,9.65
2022-10-03T20:41:48.598Z,9.71
2022-10-03T20:45:37.146Z,9.69
2022-10-03T20:49:37.615Z,9.67
2022-10-03T20:53:22.407Z,9.69
2022-10-03T20:57:10.083Z,9.68
2022-10-03T21:01:00.642Z,9.67
2022-10-03T21:04:51.725Z,9.64
2022-10-03T21:08:37.932Z,9.45
2022-10-03T21:12:24.005Z,9.32
2022-10-03T21:16:17.828Z,9.31
2022-10-03T21:20:04.780Z,9.32
2022-10-03T21:23:50.560Z,9.28
2022-10-03T21:27:34.766Z,9.27
2022-10-03T21:31:31.811Z,9.23
2022-10-03T21:35:22.733Z,9.17
2022-10-03T21:39:16.955Z,9.17
2022-10-03T21:43:06.520Z,9.13
2022-10-03T21:46:57.571Z,9.02
2022-10-03T21:50:45.190Z,8.94
2022-10-03T21:54:37.326Z,8.86
2022-10-03T21:58:31.526Z,8.87
2022-10-03T22:02:19.766Z,8.86
2022-10-03T22:06:08.441Z,8.93
2022-10-03T22:09:55.653Z,8.94
2022-10-03T22:13:40.615Z,8.97
2022-10-03T22:17:30.133Z,9.03
2022-10-03T22:21:20.720Z,9.04
2022-10-03T22:25:11.607Z,9.01
2022-10-03T22:28:58.396Z,8.97
2022-10-03T22:32:47.556Z,8.90
2022-10-03T22:36:30.667Z,8.83
2022-10-03T22:40:13.719Z,8.79
2022-10-03T22:43:57.363Z,8.73
2022-10-03T22:47:40.277Z,8.69
2022-10-03T22:51:24.961Z,8.66
2022-10-03T22:55:09.881Z,8.64
2022-10-03T22:58:52.895Z,8.62
2022-10-03T23:02:37.463Z,8.59
2022-10-03T23:06:43.951Z,8.54
2022-10-03T23:10:41.844Z,8.43
2022-10-03T23:14:26.620Z,8.30
2022-10-03T23:18:28.852Z,8.23
2022-10-03T23:22:15.819Z,8.20
2022-10-03T23:26:07.237Z,8.18
2022-10-03T23:30:34.701Z,8.18
2022-10-03T23:34:47.144Z,8.14
2022-10-03T23:38:59.846Z,8.09
2022-10-03T23:42:44.440Z,8.06
2022-10-03T23:46:29.310Z,8.07
2022-10-03T23:50:18.731Z,8.09
2022-10-03T23:54:04.734Z,8.11
2022-10-03T23:57:47.572Z,8.13
